Time;durP1;ratioP1;P1;durP2;ratioP2;P2;SDS_P1;SDS_P2;PMS_P1;PMS_P2;Temp;Humidity;BMP_temperature;BMP_pressure;BME280_temperature;BME280_humidity;BME280_pressure;Samples;Min_cycle;Max_cycle;Signal;HPM_P1;HPM_P2
2024/01/28 00:00:20;;;;;;;145.25;93.75;;;;;;;12.11;nan;99060.34;5044412;28;20053;-70
2024/01/28 00:02:50;;;;;;;154.85;92.90;;;;;;;11.98;nan;99064.75;5027570;28;20524;-70
2024/01/28 00:05:19;;;;;;;153.57;93.47;;;;;;;11.79;nan;99068.03;5046245;28;20136;-70
2024/01/28 00:07:49;;;;;;;155.05;96.18;;;;;;;11.71;nan;99067.16;5043929;28;20052;-70
2024/01/28 00:10:18;;;;;;;152.02;93.65;;;;;;;11.52;nan;99066.94;5043967;28;20144;-70
2024/01/28 00:12:48;;;;;;;155.13;94.93;;;;;;;11.46;nan;99065.06;5044493;28;20045;-70
2024/01/28 00:15:17;;;;;;;150.68;94.07;;;;;;;11.97;nan;99065.75;5059915;28;20056;-69
2024/01/28 00:17:47;;;;;;;166.20;98.30;;;;;;;12.11;nan;99060.34;5064495;28;20376;-70
2024/01/28 00:20:16;;;;;;;166.55;99.45;;;;;;;12.03;nan;99063.16;5049788;28;20048;-70
2024/01/28 00:22:45;;;;;;;158.65;96.00;;;;;;;12.12;nan;99069.16;5050597;28;20703;-70
2024/01/28 00:25:16;;;;;;;154.07;95.07;;;;;;;12.05;nan;99073.56;5057376;28;20048;-70
2024/01/28 00:27:45;;;;;;;154.68;97.72;;;;;;;11.84;nan;99076.25;5050121;28;20049;-70
2024/01/28 00:30:14;;;;;;;160.20;96.47;;;;;;;11.54;nan;99073.72;5053399;28;20060;-70
2024/01/28 00:32:44;;;;;;;151.48;95.72;;;;;;;11.40;nan;99069.28;5071530;28;20059;-69
2024/01/28 00:35:13;;;;;;;164.00;96.05;;;;;;;11.37;nan;99061.72;5070302;28;20052;-69
2024/01/28 00:37:42;;;;;;;155.27;96.22;;;;;;;11.36;nan;99065.38;5068365;28;20232;-70
2024/01/28 00:40:12;;;;;;;148.48;92.70;;;;;;;11.38;nan;99062.50;5073204;28;20055;-70
2024/01/28 00:42:41;;;;;;;148.20;93.55;;;;;;;11.20;nan;99065.59;5071521;28;20048;-70
2024/01/28 00:45:10;;;;;;;152.82;95.10;;;;;;;11.27;nan;99069.97;5072892;28;20147;-70
2024/01/28 00:47:41;;;;;;;158.88;98.85;;;;;;;11.26;nan;99078.09;5072268;28;20051;-70
2024/01/28 00:50:11;;;;;;;190.63;103.05;;;;;;;11.26;nan;99083.41;5071639;28;20044;-70
2024/01/28 00:52:40;;;;;;;159.13;97.07;;;;;;;11.28;nan;99079.56;5074718;28;20367;-70
2024/01/28 00:55:10;;;;;;;165.90;98.18;;;;;;;11.30;nan;99079.38;5072719;28;20045;-70
2024/01/28 00:57:39;;;;;;;158.38;98.32;;;;;;;11.06;nan;99069.13;5072427;28;20036;-70
2024/01/28 01:00:10;;;;;;;161.57;99.40;;;;;;;11.07;nan;99079.53;5078893;28;20048;-70
2024/01/28 01:02:39;;;;;;;162.20;97.38;;;;;;;11.00;nan;99088.41;5073750;28;20110;-70
2024/01/28 01:05:09;;;;;;;154.48;99.72;;;;;;;11.05;nan;99086.84;5072073;28;20044;-70
2024/01/28 01:07:38;;;;;;;152.60;97.70;;;;;;;10.82;nan;99086.97;5071220;28;20156;-69
2024/01/28 01:10:08;;;;;;;156.90;97.13;;;;;;;11.35;nan;99086.78;5072905;28;20048;-70
2024/01/28 01:12:37;;;;;;;156.80;99.35;;;;;;;11.67;nan;99089.75;5065603;28;20471;-70
2024/01/28 01:15:07;;;;;;;153.02;99.15;;;;;;;11.85;nan;99086.69;5069953;28;20135;-70
2024/01/28 01:17:36;;;;;;;149.52;95.22;;;;;;;11.92;nan;99086.72;5071522;28;20044;-70
2024/01/28 01:20:07;;;;;;;151.18;98.25;;;;;;;11.99;nan;99079.66;5068920;28;20049;-70
2024/01/28 01:22:36;;;;;;;158.70;98.70;;;;;;;11.70;nan;99077.94;5071374;28;20048;-70
2024/01/28 01:25:05;;;;;;;148.32;93.75;;;;;;;11.69;nan;99089.56;5064041;28;20475;-70
2024/01/28 01:27:34;;;;;;;153.43;96.53;;;;;;;11.59;nan;99092.56;5072631;28;20086;-70
2024/01/28 01:30:05;;;;;;;150.13;98.72;;;;;;;11.59;nan;99094.38;5061826;28;20502;-70
2024/01/28 01:32:37;;;;;;;150.13;94.43;;;;;;;11.49;nan;99092.03;5062175;28;20037;-69
2024/01/28 01:35:08;;;;;;;145.75;94.65;;;;;;;11.44;nan;99096.25;5061694;28;20055;-70
2024/01/28 01:37:37;;;;;;;152.15;97.00;;;;;;;11.41;nan;99086.84;5063401;28;20044;-70
2024/01/28 01:40:07;;;;;;;150.85;96.18;;;;;;;11.28;nan;99092.81;5062059;28;20357;-70
2024/01/28 01:42:37;;;;;;;178.63;101.38;;;;;;;10.88;nan;99095.19;5063311;28;20123;-69
2024/01/28 01:45:07;;;;;;;157.45;99.40;;;;;;;10.71;nan;99094.59;5045110;28;20048;-69
2024/01/28 01:47:36;;;;;;;163.82;101.40;;;;;;;10.55;nan;99092.94;5062968;28;20110;-70
2024/01/28 01:50:10;;;;;;;165.40;100.53;;;;;;;10.65;nan;99093.47;5063125;28;20040;-70
2024/01/28 01:52:44;;;;;;;173.60;104.00;;;;;;;10.93;nan;99095.47;5062572;28;20040;-70
2024/01/28 01:55:13;;;;;;;157.98;100.30;;;;;;;10.88;nan;99100.50;5063413;28;20209;-70
2024/01/28 01:57:43;;;;;;;160.93;100.00;;;;;;;10.89;nan;99095.00;5063602;28;20052;-70
2024/01/28 02:00:14;;;;;;;171.57;102.30;;;;;;;10.69;nan;99105.34;5063225;28;20056;-70
2024/01/28 02:02:46;;;;;;;170.07;101.65;;;;;;;10.47;nan;99100.97;5063844;28;20098;-70
2024/01/28 02:05:15;;;;;;;171.65;103.70;;;;;;;10.35;nan;99108.53;5062907;28;20132;-70
2024/01/28 02:07:45;;;;;;;163.93;103.45;;;;;;;10.30;nan;99112.72;5062467;28;20064;-70
2024/01/28 02:10:14;;;;;;;179.80;103.72;;;;;;;10.32;nan;99113.34;5062190;28;20174;-70
2024/01/28 02:12:45;;;;;;;170.10;102.00;;;;;;;10.52;nan;99118.94;5063153;28;20036;-70
2024/01/28 02:15:14;;;;;;;168.48;103.00;;;;;;;10.59;nan;99125.97;5062956;28;20092;-70
2024/01/28 02:17:44;;;;;;;178.77;106.18;;;;;;;10.69;nan;99120.41;5063383;28;20044;-69
2024/01/28 02:20:13;;;;;;;178.95;106.18;;;;;;;10.73;nan;99125.16;5062881;28;20052;-70
2024/01/28 02:22:43;;;;;;;161.38;104.80;;;;;;;10.78;nan;99120.16;5063222;28;20048;-70
2024/01/28 02:25:12;;;;;;;179.27;108.43;;;;;;;10.66;nan;99128.75;5061556;28;20052;-70
2024/01/28 02:27:41;;;;;;;169.38;103.72;;;;;;;10.71;nan;99121.88;5061916;28;20495;-70
2024/01/28 02:30:11;;;;;;;170.15;106.55;;;;;;;10.94;nan;99131.53;5058967;28;20060;-70
2024/01/28 02:32:51;;;;;;;163.57;104.50;;;;;;;11.09;nan;99140.31;5062591;28;20059;-70
2024/01/28 02:35:21;;;;;;;177.20;107.63;;;;;;;10.79;nan;99145.63;5049804;28;20080;-70
2024/01/28 02:37:50;;;;;;;156.70;102.95;;;;;;;10.90;nan;99135.56;5059540;28;20427;-70
2024/01/28 02:40:20;;;;;;;170.38;108.85;;;;;;;11.04;nan;99151.47;5055224;28;20473;-69
2024/01/28 02:42:50;;;;;;;172.95;111.35;;;;;;;11.23;nan;99158.84;5042023;28;20476;-70
2024/01/28 02:45:19;;;;;;;175.35;107.70;;;;;;;11.06;nan;99154.78;5023922;28;20049;-70
2024/01/28 02:47:48;;;;;;;170.98;108.60;;;;;;;10.97;nan;99157.69;5043003;28;20052;-70
2024/01/28 02:50:18;;;;;;;188.05;112.30;;;;;;;10.99;nan;99145.06;5041755;28;20061;-70
2024/01/28 02:52:47;;;;;;;170.23;108.68;;;;;;;11.09;nan;99153.56;5042636;28;20107;-70
2024/01/28 02:55:16;;;;;;;174.35;107.53;;;;;;;11.14;nan;99157.31;5041589;28;20045;-70
2024/01/28 02:57:46;;;;;;;178.77;108.65;;;;;;;11.32;nan;99154.25;5042306;28;20049;-69
2024/01/28 03:00:16;;;;;;;177.77;110.80;;;;;;;11.34;nan;99146.94;5042046;28;20064;-70
2024/01/28 03:02:46;;;;;;;176.13;109.70;;;;;;;11.39;nan;99147.19;5041936;28;20790;-70
2024/01/28 03:05:15;;;;;;;170.15;110.35;;;;;;;11.53;nan;99154.31;5044264;28;20057;-70
2024/01/28 03:07:44;;;;;;;170.88;108.65;;;;;;;11.71;nan;99170.63;5045906;28;20737;-70
2024/01/28 03:10:13;;;;;;;164.25;111.20;;;;;;;11.72;nan;99179.44;5045873;28;20056;-70
2024/01/28 03:12:43;;;;;;;174.00;109.47;;;;;;;11.89;nan;99178.19;5046320;28;20141;-70
2024/01/28 03:15:12;;;;;;;179.10;112.75;;;;;;;12.09;nan;99181.84;5045757;28;20087;-71
2024/01/28 03:17:41;;;;;;;175.95;109.90;;;;;;;12.17;nan;99190.69;5045050;28;20049;-70
2024/01/28 03:20:11;;;;;;;180.27;112.82;;;;;;;12.41;nan;99195.59;5038155;28;20936;-70
2024/01/28 03:22:40;;;;;;;177.98;112.15;;;;;;;12.42;nan;99192.75;5043927;28;20056;-70
2024/01/28 03:25:11;;;;;;;174.25;111.82;;;;;;;12.40;nan;99201.91;5011703;28;20059;-70
2024/01/28 03:27:40;;;;;;;169.30;111.32;;;;;;;12.48;nan;99188.53;5049934;28;20567;-70
2024/01/28 03:30:09;;;;;;;173.10;109.70;;;;;;;12.99;nan;99202.34;5039082;28;20766;-70
2024/01/28 03:32:39;;;;;;;167.98;111.53;;;;;;;12.85;nan;99203.28;5065098;28;20852;-70
2024/01/28 03:35:11;;;;;;;164.85;111.25;;;;;;;12.85;nan;99209.41;5054184;28;20049;-70
2024/01/28 03:37:40;;;;;;;168.25;111.18;;;;;;;12.92;nan;99218.25;5064584;28;20048;-70
2024/01/28 03:40:10;;;;;;;164.73;108.47;;;;;;;13.10;nan;99220.41;5064580;28;20056;-70
2024/01/28 03:42:40;;;;;;;163.57;111.57;;;;;;;13.17;nan;99225.81;5046404;28;20041;-70
2024/01/28 03:45:10;;;;;;;170.93;113.95;;;;;;;13.19;nan;99221.13;5064855;28;20371;-70
2024/01/28 03:47:39;;;;;;;175.35;114.97;;;;;;;13.27;nan;99210.31;5065239;28;20044;-70
2024/01/28 03:50:11;;;;;;;177.85;114.97;;;;;;;13.32;nan;99210.56;5057817;28;20144;-70
2024/01/28 03:52:40;;;;;;;177.40;113.72;;;;;;;13.43;nan;99224.09;5065168;28;20032;-70
2024/01/28 03:55:10;;;;;;;174.90;115.88;;;;;;;13.59;nan;99219.44;5065064;28;20372;-70
2024/01/28 03:57:40;;;;;;;176.18;113.50;;;;;;;13.69;nan;99222.56;5064860;28;20125;-71
2024/01/28 04:00:11;;;;;;;175.45;114.63;;;;;;;13.79;nan;99218.50;5063745;28;20128;-70
2024/01/28 04:02:41;;;;;;;178.40;116.18;;;;;;;14.18;nan;99212.44;5063838;28;20048;-70
2024/01/28 04:05:11;;;;;;;206.00;128.45;;;;;;;14.17;nan;99213.47;5064376;28;20145;-69
2024/01/28 04:07:40;;;;;;;180.35;124.85;;;;;;;14.28;nan;99212.88;5065842;28;20045;-70
2024/01/28 04:10:09;;;;;;;182.18;122.43;;;;;;;14.34;nan;99220.03;5065373;28;20196;-70
2024/01/28 04:12:39;;;;;;;183.15;120.90;;;;;;;14.25;nan;99221.25;5047804;28;20519;-70
2024/01/28 04:15:08;;;;;;;192.75;122.95;;;;;;;14.42;nan;99234.22;5064355;28;20109;-70
2024/01/28 04:17:38;;;;;;;186.15;123.82;;;;;;;14.51;nan;99225.84;5061213;28;20040;-70
2024/01/28 04:20:08;;;;;;;169.98;118.28;;;;;;;14.64;nan;99227.69;5043605;28;20072;-71
2024/01/28 04:22:37;;;;;;;176.43;119.30;;;;;;;14.69;nan;99233.22;5028791;28;20072;-70
2024/01/28 04:25:07;;;;;;;179.63;117.13;;;;;;;14.81;nan;99234.22;5062325;28;20086;-70
2024/01/28 04:27:36;;;;;;;173.18;114.97;;;;;;;15.06;nan;99247.72;5061232;28;20484;-69
2024/01/28 04:30:08;;;;;;;163.15;113.03;;;;;;;15.13;nan;99244.03;5062283;28;20045;-71
2024/01/28 04:32:38;;;;;;;170.70;111.47;;;;;;;15.36;nan;99254.22;5044565;28;20148;-70
2024/01/28 04:35:12;;;;;;;164.93;109.20;;;;;;;15.52;nan;99251.16;5031965;28;20048;-70
2024/01/28 04:37:41;;;;;;;166.25;113.68;;;;;;;15.80;nan;99258.81;5039957;28;20041;-70
2024/01/28 04:40:11;;;;;;;160.63;109.35;;;;;;;15.86;nan;99246.47;5039714;28;20496;-70
2024/01/28 04:42:41;;;;;;;164.98;111.38;;;;;;;15.83;nan;99237.06;5023618;28;20049;-70
2024/01/28 04:45:11;;;;;;;154.35;103.65;;;;;;;15.80;nan;99255.38;5027899;28;20058;-70
2024/01/28 04:47:41;;;;;;;159.27;101.50;;;;;;;15.86;nan;99254.50;5017294;28;20071;-70
2024/01/28 04:50:11;;;;;;;158.40;103.88;;;;;;;15.94;nan;99259.59;5042643;28;20045;-70
2024/01/28 04:52:40;;;;;;;145.23;95.75;;;;;;;16.28;nan;99258.38;5042717;28;20146;-70
2024/01/28 04:55:09;;;;;;;149.90;97.75;;;;;;;16.18;nan;99251.66;5031399;28;20045;-70
2024/01/28 04:57:38;;;;;;;146.73;99.25;;;;;;;16.37;nan;99246.41;5013212;28;20053;-70
2024/01/28 05:00:11;;;;;;;142.85;96.43;;;;;;;16.57;nan;99253.25;5039957;28;20049;-70
2024/01/28 05:02:41;;;;;;;147.93;97.35;;;;;;;16.63;nan;99245.41;5043238;28;20736;-70
2024/01/28 05:05:10;;;;;;;147.93;96.25;;;;;;;16.81;nan;99246.28;5016013;28;20130;-70
2024/01/28 05:07:39;;;;;;;131.18;85.60;;;;;;;16.95;nan;99247.00;5035553;28;20540;-70
2024/01/28 05:10:09;;;;;;;130.60;86.38;;;;;;;16.97;nan;99248.41;5016975;28;20137;-70
2024/01/28 05:12:38;;;;;;;119.05;83.18;;;;;;;17.32;nan;99261.22;5012688;28;20149;-70
2024/01/28 05:15:09;;;;;;;114.75;76.53;;;;;;;17.41;nan;99266.06;5009419;28;20046;-70
2024/01/28 05:17:39;;;;;;;115.88;81.13;;;;;;;17.29;nan;99269.72;5014814;28;20038;-70
2024/01/28 05:20:09;;;;;;;126.78;78.95;;;;;;;17.20;nan;99254.97;5021687;28;20059;-70
2024/01/28 05:22:39;;;;;;;116.93;77.28;;;;;;;17.42;nan;99246.28;5031721;28;20734;-70
2024/01/28 05:25:09;;;;;;;120.10;77.72;;;;;;;17.55;nan;99257.88;5042221;28;20142;-70
2024/01/28 05:27:39;;;;;;;105.95;74.68;;;;;;;17.94;nan;99254.75;5028470;28;20049;-70
2024/01/28 05:30:09;;;;;;;113.00;75.40;;;;;;;18.11;nan;99249.56;5028278;28;20054;-70
2024/01/28 05:32:40;;;;;;;117.25;77.18;;;;;;;17.74;nan;99238.94;5041971;28;20406;-70
2024/01/28 05:35:09;;;;;;;109.70;75.93;;;;;;;18.18;nan;99244.94;5059721;28;20488;-70
2024/01/28 05:37:40;;;;;;;113.20;81.80;;;;;;;18.09;nan;99239.09;5062817;28;20056;-70
2024/01/28 05:40:10;;;;;;;125.45;80.25;;;;;;;18.01;nan;99235.91;5062190;28;20492;-70
2024/01/28 05:42:40;;;;;;;124.63;85.75;;;;;;;18.37;nan;99239.28;5045034;28;20041;-70
2024/01/28 05:45:09;;;;;;;115.38;80.90;;;;;;;18.43;nan;99234.88;5062933;28;20227;-70
2024/01/28 05:47:38;;;;;;;117.43;82.00;;;;;;;18.36;nan;99237.66;5061185;28;20067;-70
2024/01/28 05:50:08;;;;;;;128.60;83.95;;;;;;;18.43;nan;99240.22;5062092;28;20058;-70
2024/01/28 05:52:37;;;;;;;116.57;80.85;;;;;;;18.46;nan;99228.22;5062835;28;20048;-70
2024/01/28 05:55:07;;;;;;;112.57;74.57;;;;;;;18.41;nan;99223.53;5060839;28;20040;-70
2024/01/28 05:57:36;;;;;;;118.40;74.22;;;;;;;18.54;nan;99227.94;5042598;28;20127;-70
2024/01/28 06:00:06;;;;;;;109.82;72.95;;;;;;;18.33;nan;99232.75;5077716;28;20051;-70
2024/01/28 06:02:36;;;;;;;102.90;70.78;;;;;;;18.06;nan;99225.31;5060165;28;20586;-70
2024/01/28 06:05:06;;;;;;;109.18;73.03;;;;;;;18.53;nan;99227.13;5057556;28;20056;-70
2024/01/28 06:07:35;;;;;;;104.18;69.18;;;;;;;18.70;nan;99232.63;5060884;28;20102;-69
2024/01/28 06:10:05;;;;;;;99.97;68.22;;;;;;;18.58;nan;99229.94;5059743;28;20472;-68
2024/01/28 06:12:34;;;;;;;97.22;65.72;;;;;;;18.68;nan;99229.31;5060958;28;20043;-68
2024/01/28 06:15:08;;;;;;;95.00;63.90;;;;;;;18.62;nan;99232.97;5050691;28;20303;-69
2024/01/28 06:17:38;;;;;;;95.38;59.25;;;;;;;18.56;nan;99226.66;5029172;28;20148;-68
2024/01/28 06:20:08;;;;;;;94.68;52.95;;;;;;;18.70;nan;99228.06;5066647;28;20052;-68
2024/01/28 06:22:38;;;;;;;84.00;54.78;;;;;;;18.66;nan;99218.84;5068066;28;20044;-69
2024/01/28 06:25:08;;;;;;;89.38;55.70;;;;;;;18.64;nan;99212.88;5052823;28;20060;-68
2024/01/28 06:27:37;;;;;;;86.10;58.90;;;;;;;18.84;nan;99208.00;5055696;28;20444;-68
2024/01/28 06:30:07;;;;;;;84.63;54.75;;;;;;;18.88;nan;99191.44;5056284;28;20044;-71
2024/01/28 06:32:37;;;;;;;99.75;61.00;;;;;;;18.99;nan;99201.34;5009748;28;20053;-70
2024/01/28 06:35:07;;;;;;;105.32;64.50;;;;;;;19.03;nan;99200.63;5015825;28;20045;-69
2024/01/28 06:37:37;;;;;;;96.50;62.20;;;;;;;19.27;nan;99204.94;5031608;28;20060;-68
2024/01/28 06:40:07;;;;;;;102.68;65.57;;;;;;;19.07;nan;99201.00;5003964;28;20505;-70
2024/01/28 06:42:36;;;;;;;100.50;66.10;;;;;;;19.27;nan;99190.69;5033633;28;20049;-69
2024/01/28 06:45:07;;;;;;;96.55;65.97;;;;;;;19.48;nan;99197.31;5034968;28;20435;-70
2024/01/28 06:47:37;;;;;;;102.03;67.90;;;;;;;19.06;nan;99196.69;5032677;28;20049;-69
2024/01/28 06:50:10;;;;;;;106.05;64.75;;;;;;;19.06;nan;99194.00;5029902;28;20653;-69
2024/01/28 06:52:41;;;;;;;94.05;63.75;;;;;;;19.11;nan;99183.38;5023458;28;20138;-69
2024/01/28 06:55:11;;;;;;;86.30;57.35;;;;;;;19.41;nan;99183.19;5023379;28;20080;-70
2024/01/28 06:57:40;;;;;;;76.38;49.55;;;;;;;19.40;nan;99174.31;5043252;28;20044;-70
2024/01/28 07:00:13;;;;;;;71.00;45.78;;;;;;;19.25;nan;99174.00;5025335;28;20053;-70
2024/01/28 07:02:45;;;;;;;75.90;50.72;;;;;;;19.59;nan;99181.19;5044254;28;20049;-71
2024/01/28 07:05:14;;;;;;;81.07;53.10;;;;;;;19.68;nan;99174.38;5042574;28;20069;-70
2024/01/28 07:07:44;;;;;;;86.57;55.55;;;;;;;19.58;nan;99171.47;5043315;28;20080;-70
2024/01/28 07:10:13;;;;;;;81.05;54.20;;;;;;;19.63;nan;99173.44;5037103;28;20092;-70
2024/01/28 07:12:42;;;;;;;80.35;49.33;;;;;;;19.55;nan;99169.28;5042240;28;20065;-69
2024/01/28 07:15:12;;;;;;;76.55;47.92;;;;;;;19.70;nan;99174.13;5041888;28;20048;-70
2024/01/28 07:17:41;;;;;;;72.53;48.40;;;;;;;19.90;nan;99174.50;5022941;28;20064;-70
2024/01/28 07:20:10;;;;;;;73.30;50.38;;;;;;;20.12;nan;99171.94;5023700;28;20527;-70
2024/01/28 07:22:40;;;;;;;80.55;54.13;;;;;;;20.11;nan;99165.75;5027540;28;20041;-71
2024/01/28 07:25:09;;;;;;;83.55;54.08;;;;;;;19.93;nan;99155.19;5033334;28;20052;-70
2024/01/28 07:27:38;;;;;;;82.47;58.22;;;;;;;19.98;nan;99141.84;5042753;28;20044;-71
2024/01/28 07:30:07;;;;;;;88.32;59.58;;;;;;;19.93;nan;99147.13;5040627;28;20057;-73
2024/01/28 07:32:37;;;;;;;89.45;56.67;;;;;;;20.01;nan;99145.91;5048653;28;20049;-70
2024/01/28 07:35:06;;;;;;;76.35;51.80;;;;;;;19.93;nan;99147.13;5019836;28;20053;-72
2024/01/28 07:37:36;;;;;;;62.60;41.30;;;;;;;19.97;nan;99134.00;5044700;28;20420;-70
2024/01/28 07:40:05;;;;;;;79.22;50.20;;;;;;;20.02;nan;99124.16;5052378;28;20052;-70
2024/01/28 07:42:35;;;;;;;93.88;56.13;;;;;;;19.82;nan;99125.69;5062939;28;20464;-70
2024/01/28 07:45:04;;;;;;;96.28;63.03;;;;;;;19.97;nan;99126.78;5042706;28;20045;-74
2024/01/28 07:47:34;;;;;;;107.18;70.18;;;;;;;19.86;nan;99126.84;5060857;28;20383;-69
2024/01/28 07:50:06;;;;;;;124.00;73.15;;;;;;;19.91;nan;99121.56;5037236;28;20061;-70
2024/01/28 07:52:36;;;;;;;101.68;63.97;;;;;;;19.92;nan;99115.09;5041902;28;20842;-71
2024/01/28 07:55:05;;;;;;;92.45;61.45;;;;;;;19.85;nan;99109.91;5034077;28;20056;-69
2024/01/28 07:57:35;;;;;;;109.30;63.78;;;;;;;20.07;nan;99104.63;5014482;28;20056;-71
2024/01/28 08:00:05;;;;;;;96.35;61.97;;;;;;;20.05;nan;99090.59;5042911;28;20064;-69
2024/01/28 08:02:43;;;;;;;101.63;62.17;;;;;;;20.05;nan;99091.41;5040754;28;20126;-69
2024/01/28 08:05:13;;;;;;;100.80;60.90;;;;;;;20.04;nan;99083.59;5039332;28;20041;-72
2024/01/28 08:07:42;;;;;;;103.55;65.65;;;;;;;20.08;nan;99076.69;5023908;28;20049;-71
2024/01/28 08:10:12;;;;;;;98.97;68.03;;;;;;;20.00;nan;99071.72;5014868;28;20527;-72
2024/01/28 08:12:41;;;;;;;114.43;72.35;;;;;;;19.95;nan;99068.94;5033954;28;20045;-71
2024/01/28 08:15:11;;;;;;;106.95;68.03;;;;;;;19.70;nan;99051.31;5050447;28;20052;-70
2024/01/28 08:17:40;;;;;;;102.07;61.47;;;;;;;19.87;nan;99029.81;5043090;28;20366;-70
2024/01/28 08:20:10;;;;;;;91.47;60.17;;;;;;;19.92;nan;99032.59;5046593;28;20045;-71
2024/01/28 08:22:40;;;;;;;96.05;60.53;;;;;;;20.05;nan;99031.44;5061624;28;20248;-71
2024/01/28 08:25:13;;;;;;;90.82;59.35;;;;;;;19.99;nan;99032.44;5054292;28;20120;-70
2024/01/28 08:27:44;;;;;;;95.97;58.80;;;;;;;19.47;nan;99035.31;5049721;28;20128;-70
2024/01/28 08:30:15;;;;;;;94.75;57.80;;;;;;;19.63;nan;99033.72;5046574;28;20057;-71
2024/01/28 08:32:44;;;;;;;89.45;54.78;;;;;;;19.76;nan;99028.03;5047647;28;20127;-70
2024/01/28 08:35:13;;;;;;;81.20;51.55;;;;;;;19.71;nan;99019.88;5032312;28;20107;-70
2024/01/28 08:37:42;;;;;;;74.47;49.55;;;;;;;19.76;nan;99022.66;5044185;28;20063;-70
2024/01/28 08:40:11;;;;;;;73.68;49.38;;;;;;;19.95;nan;99015.16;5044134;28;20056;-70
2024/01/28 08:42:41;;;;;;;77.35;47.90;;;;;;;20.00;nan;99010.66;5049219;28;20048;-71
2024/01/28 08:45:10;;;;;;;78.88;48.75;;;;;;;19.76;nan;99001.16;5039858;28;20049;-70
2024/01/28 08:47:40;;;;;;;70.60;45.95;;;;;;;19.70;nan;98997.56;5022150;28;20472;-70
2024/01/28 08:50:09;;;;;;;77.07;46.95;;;;;;;19.76;nan;98997.66;5051459;28;20765;-70
2024/01/28 08:52:38;;;;;;;76.82;45.60;;;;;;;19.76;nan;98993.09;5054913;28;20044;-71
2024/01/28 08:55:08;;;;;;;77.45;46.15;;;;;;;19.64;nan;98993.19;5058824;28;20053;-70
2024/01/28 08:57:37;;;;;;;71.80;46.83;;;;;;;19.66;nan;98985.66;5060389;28;20044;-70
2024/01/28 09:00:11;;;;;;;66.10;45.35;;;;;;;19.72;nan;98973.94;5034227;28;20053;-71
2024/01/28 09:02:41;;;;;;;71.78;45.22;;;;;;;19.72;nan;98975.81;5055313;28;20692;-70
2024/01/28 09:05:10;;;;;;;73.90;45.38;;;;;;;20.01;nan;98974.66;5057289;28;20165;-70
2024/01/28 09:07:41;;;;;;;72.63;48.47;;;;;;;19.97;nan;98973.50;5023708;28;20584;-70
2024/01/28 09:10:11;;;;;;;74.57;48.55;;;;;;;19.92;nan;98972.63;5052892;28;20114;-71
2024/01/28 09:12:40;;;;;;;78.90;49.25;;;;;;;19.95;nan;98970.28;5023867;28;20045;-71
2024/01/28 09:15:10;;;;;;;83.55;52.28;;;;;;;20.06;nan;98972.03;5055666;28;20045;-70
2024/01/28 09:17:39;;;;;;;95.07;49.63;;;;;;;20.04;nan;98962.59;5034145;28;20041;-70
2024/01/28 09:20:09;;;;;;;80.53;49.22;;;;;;;20.17;nan;98960.38;5038908;28;20057;-70
2024/01/28 09:22:38;;;;;;;75.10;48.92;;;;;;;20.15;nan;98964.38;5044070;28;20044;-70
2024/01/28 09:25:08;;;;;;;75.93;48.70;;;;;;;20.27;nan;98969.66;5046908;28;20052;-71
2024/01/28 09:27:37;;;;;;;91.55;52.40;;;;;;;20.12;nan;98971.06;5034849;28;20087;-71
2024/01/28 09:30:07;;;;;;;80.22;51.00;;;;;;;20.11;nan;98957.84;5029879;28;20057;-71
2024/01/28 09:32:37;;;;;;;81.28;50.90;;;;;;;19.92;nan;98961.88;5038635;28;20452;-71
2024/01/28 09:35:06;;;;;;;75.97;48.85;;;;;;;20.01;nan;98965.75;5042985;28;20057;-70
2024/01/28 09:37:36;;;;;;;77.45;49.40;;;;;;;20.04;nan;98965.28;5032271;28;20052;-70
2024/01/28 09:40:05;;;;;;;56.30;36.88;;;;;;;19.92;nan;98962.69;5054305;28;20057;-71
2024/01/28 09:42:47;;;;;;;68.07;37.33;;;;;;;20.04;nan;98957.22;5028680;28;20079;-69
2024/01/28 09:45:16;;;;;;;62.22;40.38;;;;;;;20.15;nan;98953.59;5033393;28;20056;-70
2024/01/28 09:47:47;;;;;;;75.60;46.10;;;;;;;20.19;nan;98958.25;5058552;28;20121;-70
2024/01/28 09:50:16;;;;;;;54.92;37.38;;;;;;;20.15;nan;98967.88;5046827;28;20045;-70
2024/01/28 09:52:46;;;;;;;52.00;34.63;;;;;;;20.15;nan;98961.66;5049207;28;20126;-70
2024/01/28 09:55:16;;;;;;;54.70;36.53;;;;;;;19.99;nan;98952.59;5032966;28;20437;-70
2024/01/28 09:57:46;;;;;;;51.35;31.98;;;;;;;19.86;nan;98957.50;5056883;28;20051;-69
2024/01/28 10:00:16;;;;;;;46.83;30.08;;;;;;;19.76;nan;98949.25;5060864;28;20539;-70
2024/01/28 10:02:46;;;;;;;50.47;30.45;;;;;;;19.74;nan;98946.81;5042157;28;20049;-70
2024/01/28 10:05:15;;;;;;;54.33;33.70;;;;;;;19.73;nan;98939.84;5051611;28;20084;-70
2024/01/28 10:07:47;;;;;;;55.03;33.72;;;;;;;19.89;nan;98947.06;5045052;28;20045;-70
2024/01/28 10:10:18;;;;;;;55.90;35.75;;;;;;;19.79;nan;98946.91;5041097;28;20496;-71
2024/01/28 10:12:49;;;;;;;51.55;34.00;;;;;;;19.93;nan;98948.19;5030984;28;20052;-70
2024/01/28 10:15:23;;;;;;;67.57;41.53;;;;;;;19.97;nan;98948.50;5052705;28;20067;-70
2024/01/28 10:17:52;;;;;;;52.38;34.83;;;;;;;19.92;nan;98946.56;5034330;28;20489;-69
2024/01/28 10:20:28;;;;;;;55.08;33.50;;;;;;;19.85;nan;98945.09;5037653;28;20053;-70
2024/01/28 10:22:57;;;;;;;50.60;33.03;;;;;;;19.81;nan;98950.16;5056300;28;20563;-70
2024/01/28 10:25:27;;;;;;;55.88;35.25;;;;;;;19.84;nan;98952.34;5036463;28;20048;-70
2024/01/28 10:27:56;;;;;;;54.55;34.42;;;;;;;19.91;nan;98952.19;5055591;28;20049;-70
2024/01/28 10:30:26;;;;;;;50.42;34.25;;;;;;;19.88;nan;98952.66;5022428;28;20043;-69
2024/01/28 10:32:55;;;;;;;55.28;35.58;;;;;;;19.89;nan;98957.00;5051475;28;20056;-70
2024/01/28 10:35:25;;;;;;;49.05;31.50;;;;;;;19.85;nan;98955.84;5053113;28;20056;-70
2024/01/28 10:37:58;;;;;;;49.75;33.65;;;;;;;19.84;nan;98956.91;5046961;28;20123;-70
2024/01/28 10:40:35;;;;;;;53.38;34.63;;;;;;;19.77;nan;98953.59;5032318;28;20139;-69
2024/01/28 10:43:11;;;;;;;50.50;34.42;;;;;;;19.74;nan;98952.19;5031333;28;20057;-70
2024/01/28 10:45:44;;;;;;;55.08;35.15;;;;;;;19.76;nan;98954.63;5054893;28;20068;-69
2024/01/28 10:48:19;;;;;;;59.25;34.53;;;;;;;19.72;nan;98946.25;5023803;28;20545;-68
2024/01/28 10:50:53;;;;;;;52.70;32.42;;;;;;;19.63;nan;98942.34;5036913;28;20053;-69
2024/01/28 10:53:25;;;;;;;48.75;31.35;;;;;;;19.56;nan;98941.72;5057593;28;20052;-69
2024/01/28 10:55:55;;;;;;;55.03;33.30;;;;;;;19.56;nan;98941.72;5057640;28;20049;-69
2024/01/28 10:58:24;;;;;;;52.40;30.15;;;;;;;19.48;nan;98950.97;5056698;28;20040;-69
2024/01/28 11:00:54;;;;;;;49.35;31.00;;;;;;;19.41;nan;98950.31;5030431;28;20041;-69
2024/01/28 11:03:24;;;;;;;42.38;29.48;;;;;;;19.41;nan;98955.66;5053296;28;20048;-69
2024/01/28 11:05:53;;;;;;;52.40;30.45;;;;;;;19.41;nan;98952.16;5064593;28;20050;-69
2024/01/28 11:08:25;;;;;;;53.42;32.72;;;;;;;19.33;nan;98955.25;5039389;28;20047;-69
2024/01/28 11:10:54;;;;;;;48.40;31.73;;;;;;;19.37;nan;98962.59;5045117;28;20045;-69
2024/01/28 11:13:24;;;;;;;49.78;32.00;;;;;;;19.31;nan;98960.88;5009097;28;20044;-70
2024/01/28 11:15:56;;;;;;;57.15;34.63;;;;;;;19.23;nan;98961.25;5039473;28;20437;-70
2024/01/28 11:18:32;;;;;;;56.90;35.60;;;;;;;19.27;nan;98960.53;5046138;28;20464;-70
2024/01/28 11:21:12;;;;;;;63.85;35.75;;;;;;;19.17;nan;98959.53;5025351;28;20575;-71
2024/01/28 11:23:47;;;;;;;60.30;34.63;;;;;;;19.01;nan;98958.47;5026642;28;20139;-70
2024/01/28 11:26:20;;;;;;;64.00;36.90;;;;;;;19.09;nan;98958.06;5043429;28;20103;-70
2024/01/28 11:28:52;;;;;;;70.00;38.17;;;;;;;19.05;nan;98958.78;5044029;28;20660;-70
2024/01/28 11:31:33;;;;;;;60.40;37.22;;;;;;;18.96;nan;98957.53;5023782;28;20384;-70
2024/01/28 11:34:21;;;;;;;70.00;41.38;;;;;;;18.84;nan;98949.53;5045733;28;20048;-70
2024/01/28 11:36:54;;;;;;;58.40;38.25;;;;;;;18.82;nan;98951.63;5050955;28;20045;-70
2024/01/28 11:39:47;;;;;;;62.90;38.63;;;;;;;18.72;nan;98956.84;5045954;28;20044;-70